createdAt,value
2017-06-26T00:02:15.196Z,89.20
2017-06-26T00:04:43.937Z,89.80
2017-06-26T00:07:12.393Z,89.00
2017-06-26T00:09:40.941Z,89.70
2017-06-26T00:12:09.381Z,89.90
2017-06-26T00:14:37.812Z,89.00
2017-06-26T00:17:06.393Z,88.90
2017-06-26T00:19:34.860Z,88.80
2017-06-26T00:22:03.734Z,88.90
2017-06-26T00:24:32.966Z,90.00
2017-06-26T00:27:01.565Z,89.20
2017-06-26T00:29:30.148Z,89.80
2017-06-26T00:31:58.584Z,88.80
2017-06-26T00:34:27.163Z,89.50
2017-06-26T00:36:56.424Z,89.00
2017-06-26T00:39:24.936Z,88.90
2017-06-26T00:41:53.452Z,89.60
2017-06-26T00:44:22.344Z,90.20
2017-06-26T00:46:50.964Z,89.80
2017-06-26T00:49:19.410Z,90.50
2017-06-26T00:51:47.857Z,90.50
2017-06-26T00:54:16.478Z,90.60
2017-06-26T00:56:44.933Z,91.00
2017-06-26T00:59:13.361Z,90.70
2017-06-26T01:01:42.153Z,91.30
2017-06-26T01:04:10.620Z,91.10
2017-06-26T01:06:39.072Z,91.30
2017-06-26T01:09:08.536Z,91.00
2017-06-26T01:11:37.025Z,91.50
2017-06-26T01:14:05.468Z,91.60
2017-06-26T01:16:34.051Z,91.80
2017-06-26T01:19:02.525Z,92.40
2017-06-26T01:21:31.724Z,92.90
2017-06-26T01:24:00.337Z,92.70
2017-06-26T01:26:28.756Z,93.10
2017-06-26T01:28:57.197Z,93.00
2017-06-26T01:31:25.788Z,92.90
2017-06-26T01:33:54.640Z,93.10
2017-06-26T01:36:23.846Z,93.00
2017-06-26T01:38:52.549Z,93.00
2017-06-26T01:41:21.056Z,93.40
2017-06-26T01:43:49.528Z,93.80
2017-06-26T01:46:18.012Z,93.80
2017-06-26T01:48:46.605Z,94.00
2017-06-26T01:51:15.258Z,94.10
2017-06-26T01:53:44.287Z,94.50
2017-06-26T01:56:12.787Z,94.60
2017-06-26T01:58:41.220Z,95.20
2017-06-26T02:01:09.848Z,94.50
2017-06-26T02:03:38.304Z,94.60
2017-06-26T02:06:06.766Z,94.60
2017-06-26T02:08:35.251Z,94.50
2017-06-26T02:11:04.215Z,94.50
2017-06-26T02:13:32.764Z,94.80
2017-06-26T02:16:01.286Z,94.40
2017-06-26T02:18:30.138Z,95.40
2017-06-26T02:20:58.596Z,94.10
2017-06-26T02:23:27.270Z,94.80
2017-06-26T02:25:55.978Z,95.50
2017-06-26T02:28:24.429Z,95.20
2017-06-26T02:30:53.616Z,95.90
2017-06-26T02:34:25.663Z,95.70
2017-06-26T02:36:54.125Z,95.50
2017-06-26T02:39:22.656Z,95.40
2017-06-26T02:41:51.853Z,95.70
2017-06-26T02:44:20.461Z,95.50
2017-06-26T02:46:48.898Z,95.40
2017-06-26T02:49:17.360Z,95.40
2017-06-26T02:51:45.824Z,96.40
2017-06-26T02:54:14.406Z,96.40
2017-06-26T02:56:42.852Z,96.50
2017-06-26T02:59:13.405Z,96.40
2017-06-26T03:01:41.872Z,96.40
2017-06-26T03:04:11.128Z,97.10
2017-06-26T03:06:39.596Z,96.40
2017-06-26T03:09:08.163Z,96.80
2017-06-26T03:21:30.345Z,97.00
2017-06-26T03:23:59.569Z,97.20
2017-06-26T03:26:28.050Z,97.00
2017-06-26T03:28:56.535Z,97.20
2017-06-26T03:31:24.992Z,97.30
2017-06-26T03:33:53.659Z,97.10
2017-06-26T03:36:22.277Z,97.10
2017-06-26T03:38:51.106Z,96.90
2017-06-26T03:41:19.656Z,96.80
2017-06-26T03:43:48.296Z,97.10
2017-06-26T03:46:16.941Z,97.00
2017-06-26T03:48:45.532Z,96.90
2017-06-26T03:51:13.986Z,97.30
2017-06-26T03:53:43.203Z,97.50
2017-06-26T03:56:11.660Z,97.50
2017-06-26T03:58:40.284Z,97.60
2017-06-26T04:01:08.712Z,97.60
2017-06-26T04:03:37.631Z,97.80
2017-06-26T04:06:06.100Z,97.70
2017-06-26T04:08:35.300Z,97.50
2017-06-26T04:11:03.796Z,97.40
2017-06-26T04:13:32.248Z,97.40
2017-06-26T04:16:00.913Z,97.40
2017-06-26T04:18:29.740Z,97.30
2017-06-26T04:20:58.968Z,97.10
2017-06-26T04:23:27.541Z,97.00
2017-06-26T04:25:56.139Z,97.00
2017-06-26T04:28:24.637Z,96.90
2017-06-26T04:30:53.193Z,96.70
2017-06-26T04:33:21.700Z,96.50
2017-06-26T04:35:50.164Z,96.20
2017-06-26T04:38:18.841Z,96.30
2017-06-26T04:40:47.349Z,96.30
2017-06-26T04:43:16.244Z,95.90
2017-06-26T04:45:44.827Z,95.20
2017-06-26T04:48:13.454Z,95.20
2017-06-26T04:50:42.382Z,95.30
2017-06-26T04:53:10.922Z,93.80
2017-06-26T04:55:39.470Z,93.90
2017-06-26T04:58:07.922Z,93.00
2017-06-26T05:00:37.149Z,87.30
2017-06-26T05:03:05.609Z,87.30
2017-06-26T05:05:34.373Z,86.20
2017-06-26T05:08:03.808Z,82.60
2017-06-26T05:10:32.300Z,82.50
2017-06-26T05:13:01.112Z,81.70
2017-06-26T05:15:29.579Z,79.50
2017-06-26T05:17:58.042Z,78.20
2017-06-26T05:20:26.546Z,78.00
2017-06-26T05:22:55.028Z,76.00
2017-06-26T05:25:24.091Z,75.70
2017-06-26T05:27:53.428Z,71.80
2017-06-26T05:30:22.624Z,71.70
2017-06-26T05:32:51.128Z,71.00
2017-06-26T05:35:19.625Z,71.60
2017-06-26T05:37:48.181Z,72.10
2017-06-26T05:40:16.645Z,69.90
2017-06-26T05:42:45.145Z,72.80
2017-06-26T05:45:13.980Z,72.60
2017-06-26T05:47:42.537Z,72.50
2017-06-26T05:50:12.060Z,73.60
2017-06-26T05:52:40.716Z,72.80
2017-06-26T05:55:10.028Z,75.00
2017-06-26T05:57:38.723Z,76.30
2017-06-26T06:00:07.299Z,78.30
2017-06-26T06:02:36.109Z,77.50
2017-06-26T06:05:04.549Z,78.70
2017-06-26T06:07:33.056Z,78.90
2017-06-26T06:10:01.933Z,79.20
2017-06-26T06:12:30.603Z,79.70
2017-06-26T06:14:59.216Z,80.80
2017-06-26T06:17:27.928Z,81.50
2017-06-26T06:19:56.673Z,81.50
2017-06-26T06:22:25.161Z,81.30
2017-06-26T06:24:54.028Z,82.70
2017-06-26T06:27:22.716Z,82.70
2017-06-26T06:29:51.448Z,81.70
2017-06-26T06:32:19.987Z,81.70
2017-06-26T06:34:49.426Z,79.60
2017-06-26T06:37:18.633Z,78.20
2017-06-26T06:39:47.228Z,79.00
2017-06-26T06:42:15.888Z,77.90
2017-06-26T06:44:45.214Z,79.50
2017-06-26T06:47:13.773Z,76.30
2017-06-26T06:49:42.432Z,77.20
2017-06-26T06:52:10.952Z,76.30
2017-06-26T06:54:39.414Z,76.90
2017-06-26T06:57:09.325Z,73.30
2017-06-26T06:59:38.241Z,74.10
2017-06-26T07:02:07.064Z,74.70
2017-06-26T07:04:35.786Z,73.60
2017-06-26T07:07:04.291Z,69.80
2017-06-26T07:09:32.760Z,70.70
2017-06-26T07:12:01.446Z,69.00
2017-06-26T07:14:30.824Z,65.40
2017-06-26T07:17:00.218Z,62.90
2017-06-26T07:19:28.694Z,60.50
2017-06-26T07:21:57.679Z,59.80
2017-06-26T07:24:26.505Z,59.30
2017-06-26T07:26:55.416Z,58.50
2017-06-26T07:29:24.028Z,55.50
2017-06-26T07:31:52.564Z,52.10
2017-06-26T07:34:21.133Z,53.90
2017-06-26T07:36:50.572Z,51.90
2017-06-26T07:39:19.582Z,52.40
2017-06-26T07:41:48.441Z,53.20
2017-06-26T07:44:16.880Z,54.00
2017-06-26T07:46:45.477Z,54.60
2017-06-26T07:49:14.632Z,53.70
2017-06-26T07:51:43.100Z,56.40
2017-06-26T07:54:12.732Z,58.50
2017-06-26T07:56:41.714Z,56.20
2017-06-26T07:59:10.312Z,56.20
2017-06-26T08:01:39.128Z,57.30
2017-06-26T08:04:07.599Z,59.80
2017-06-26T08:06:36.129Z,62.70
2017-06-26T08:09:04.864Z,65.10
2017-06-26T08:11:33.300Z,66.90
2017-06-26T08:14:03.038Z,65.90
2017-06-26T08:16:31.633Z,65.90
2017-06-26T08:19:00.317Z,64.00
2017-06-26T08:21:29.221Z,63.50
2017-06-26T08:23:57.800Z,63.10
2017-06-26T08:26:26.657Z,59.00
2017-06-26T08:28:55.616Z,61.80
2017-06-26T08:31:25.378Z,59.70
2017-06-26T08:33:54.356Z,59.20
2017-06-26T08:36:23.021Z,59.30
2017-06-26T08:38:51.690Z,60.00
2017-06-26T08:41:20.145Z,60.20
2017-06-26T08:43:49.085Z,61.70
2017-06-26T08:46:18.304Z,63.30
2017-06-26T08:48:53.713Z,63.20
2017-06-26T08:51:22.457Z,67.50
2017-06-26T08:53:50.921Z,67.50
2017-06-26T08:56:19.382Z,65.70
2017-06-26T08:58:48.322Z,64.70
2017-06-26T09:01:17.008Z,57.80
2017-06-26T09:03:45.929Z,57.20
2017-06-26T09:06:14.437Z,54.60
2017-06-26T09:08:43.699Z,55.70
2017-06-26T09:11:12.220Z,55.60
2017-06-26T09:13:41.519Z,55.90
2017-06-26T09:16:11.288Z,54.30
2017-06-26T09:18:39.777Z,54.20
2017-06-26T09:21:08.361Z,53.90
2017-06-26T09:23:36.905Z,52.40
2017-06-26T09:26:05.370Z,50.50
2017-06-26T09:28:35.173Z,48.50
2017-06-26T09:31:03.608Z,48.50
2017-06-26T09:33:32.290Z,49.00
2017-06-26T09:36:00.757Z,48.30
2017-06-26T09:38:29.264Z,46.70
2017-06-26T09:40:57.869Z,49.20
2017-06-26T09:43:26.556Z,48.70
2017-06-26T09:45:55.515Z,50.10
2017-06-26T09:48:24.397Z,49.40
2017-06-26T09:50:52.869Z,50.50
2017-06-26T09:53:21.449Z,47.80
2017-06-26T09:55:49.989Z,47.00
2017-06-26T09:58:18.599Z,45.80
2017-06-26T10:00:47.268Z,44.30
2017-06-26T10:03:15.838Z,44.90
2017-06-26T10:05:44.465Z,43.20
2017-06-26T10:08:13.511Z,41.90
2017-06-26T10:10:41.997Z,41.70
2017-06-26T10:13:10.644Z,42.50
2017-06-26T10:15:39.161Z,45.30
2017-06-26T10:18:07.963Z,44.70
2017-06-26T10:20:36.525Z,48.10
2017-06-26T10:23:05.187Z,49.30
2017-06-26T10:25:33.695Z,50.90
2017-06-26T10:28:02.228Z,53.60
2017-06-26T10:30:31.045Z,50.50
2017-06-26T10:32:59.913Z,50.00
2017-06-26T10:35:29.295Z,47.70
2017-06-26T10:37:57.780Z,47.40
2017-06-26T10:40:26.444Z,46.70
2017-06-26T10:42:54.929Z,45.70
2017-06-26T10:45:23.380Z,41.90
2017-06-26T10:47:51.968Z,41.10
2017-06-26T10:50:20.546Z,44.40
2017-06-26T10:52:49.013Z,46.40
2017-06-26T10:55:23.104Z,49.00
2017-06-26T10:57:52.608Z,49.10
2017-06-26T11:00:21.202Z,51.40
2017-06-26T11:02:50.561Z,52.00
2017-06-26T11:05:19.014Z,51.40
2017-06-26T11:07:47.690Z,50.60
2017-06-26T11:10:17.410Z,48.30
2017-06-26T11:12:45.924Z,48.20
2017-06-26T11:15:14.416Z,47.00
2017-06-26T11:17:42.885Z,43.80
2017-06-26T11:20:11.412Z,46.00
2017-06-26T11:22:39.894Z,42.90
2017-06-26T11:25:08.645Z,46.50
2017-06-26T11:27:37.256Z,48.60
2017-06-26T11:30:05.796Z,45.20
2017-06-26T11:32:34.497Z,43.20
2017-06-26T11:35:03.429Z,41.20
2017-06-26T11:37:31.885Z,38.60
2017-06-26T11:40:00.348Z,37.50
2017-06-26T11:42:30.750Z,37.80
2017-06-26T11:45:00.185Z,39.10
2017-06-26T11:47:28.839Z,40.60
2017-06-26T11:49:57.294Z,46.50
2017-06-26T11:52:25.743Z,48.50
2017-06-26T11:54:54.288Z,48.70
2017-06-26T11:57:22.891Z,48.10
2017-06-26T11:59:51.677Z,47.70
2017-06-26T12:02:20.188Z,48.40
2017-06-26T12:04:49.189Z,48.10
2017-06-26T12:07:17.721Z,45.40
2017-06-26T12:09:46.324Z,43.00
2017-06-26T12:12:16.749Z,42.50
2017-06-26T12:14:48.503Z,45.60
2017-06-26T12:17:18.789Z,47.60
2017-06-26T12:19:53.749Z,47.80
2017-06-26T12:22:23.642Z,47.80
2017-06-26T12:24:53.638Z,46.70
2017-06-26T12:27:26.582Z,43.20
2017-06-26T12:29:58.977Z,39.80
2017-06-26T12:32:32.489Z,39.80
2017-06-26T12:35:01.630Z,37.90
2017-06-26T12:37:31.183Z,37.80
2017-06-26T12:40:02.852Z,40.80
2017-06-26T12:42:33.132Z,41.40
2017-06-26T12:45:03.815Z,38.80
2017-06-26T12:47:34.485Z,40.30
2017-06-26T12:50:04.224Z,39.70
2017-06-26T12:52:35.445Z,39.20
2017-06-26T12:55:08.254Z,39.00
2017-06-26T12:57:39.762Z,39.90
2017-06-26T13:00:16.796Z,40.50
2017-06-26T13:02:47.791Z,38.10
2017-06-26T13:05:20.339Z,38.30
2017-06-26T13:07:51.331Z,38.10
2017-06-26T13:10:21.148Z,37.20
2017-06-26T13:12:54.499Z,39.40
2017-06-26T13:15:24.772Z,39.50
2017-06-26T13:17:54.049Z,35.70
2017-06-26T13:20:24.439Z,36.90
2017-06-26T13:22:53.153Z,36.90
2017-06-26T13:25:22.612Z,40.10
2017-06-26T13:27:52.521Z,39.80
2017-06-26T13:30:21.356Z,39.80
2017-06-26T13:32:51.915Z,42.40
2017-06-26T13:35:21.592Z,42.10
2017-06-26T13:37:50.306Z,42.10
2017-06-26T13:40:19.660Z,44.50
2017-06-26T13:42:48.932Z,44.50
2017-06-26T13:45:18.678Z,44.80
2017-06-26T13:47:48.273Z,46.70
2017-06-26T13:50:20.210Z,43.70
2017-06-26T13:52:49.597Z,43.50
2017-06-26T13:55:18.105Z,42.60
2017-06-26T13:57:47.560Z,44.70
2017-06-26T14:00:17.781Z,45.30
2017-06-26T14:02:46.634Z,46.60
2017-06-26T14:05:17.698Z,46.60
2017-06-26T14:07:47.226Z,45.00
2017-06-26T14:10:18.393Z,44.90
2017-06-26T14:12:48.448Z,43.70
2017-06-26T14:15:17.133Z,43.70
2017-06-26T14:17:47.750Z,45.80
2017-06-26T14:20:19.724Z,45.10
2017-06-26T14:22:53.309Z,45.00
2017-06-26T14:25:21.994Z,46.00
2017-06-26T14:27:50.618Z,47.30
2017-06-26T14:30:19.149Z,46.70
2017-06-26T14:32:49.290Z,49.50
2017-06-26T14:35:19.992Z,49.50
2017-06-26T14:37:49.638Z,50.00
2017-06-26T14:40:21.048Z,50.20
2017-06-26T14:42:53.379Z,50.40
2017-06-26T14:45:21.927Z,50.10
2017-06-26T14:47:51.165Z,49.80
2017-06-26T14:50:19.649Z,49.80
2017-06-26T14:52:49.219Z,50.50
2017-06-26T14:55:17.715Z,51.50
2017-06-26T14:57:46.734Z,48.60
2017-06-26T15:00:15.322Z,48.70
2017-06-26T15:02:43.821Z,50.50
2017-06-26T15:05:12.344Z,49.30
2017-06-26T15:07:41.295Z,51.80
2017-06-26T15:10:09.936Z,49.50
2017-06-26T15:12:38.430Z,52.10
2017-06-26T15:15:07.016Z,51.00
2017-06-26T15:17:35.921Z,48.80
2017-06-26T15:20:04.208Z,50.70
2017-06-26T15:22:32.700Z,50.60
2017-06-26T15:25:01.146Z,49.90
2017-06-26T15:27:29.804Z,52.50
2017-06-26T15:30:02.652Z,53.30
2017-06-26T15:32:31.444Z,53.10
2017-06-26T15:35:00.015Z,51.30
2017-06-26T15:37:28.489Z,50.90
2017-06-26T15:39:57.077Z,51.80
2017-06-26T15:42:25.840Z,50.80
2017-06-26T15:44:54.628Z,51.20
2017-06-26T15:47:23.287Z,53.20
2017-06-26T15:49:52.142Z,51.90
2017-06-26T15:52:20.624Z,52.80
2017-06-26T15:54:49.217Z,53.50
2017-06-26T15:57:17.873Z,51.20
2017-06-26T15:59:46.443Z,51.00
2017-06-26T16:02:15.042Z,51.50
2017-06-26T16:04:43.527Z,53.70
2017-06-26T16:07:12.682Z,52.00
2017-06-26T16:09:41.986Z,53.10
2017-06-26T16:12:10.701Z,52.20
2017-06-26T16:14:39.144Z,54.40
2017-06-26T16:17:07.618Z,54.60
2017-06-26T16:19:36.266Z,52.20
2017-06-26T16:22:04.760Z,53.30
2017-06-26T16:24:33.691Z,53.50
2017-06-26T16:27:02.155Z,51.70
2017-06-26T16:29:30.808Z,51.60
2017-06-26T16:31:59.818Z,51.30
2017-06-26T16:34:28.403Z,52.10
2017-06-26T16:36:56.904Z,53.20
2017-06-26T16:39:25.414Z,52.80
2017-06-26T16:41:56.109Z,52.90
2017-06-26T16:44:24.795Z,52.90
2017-06-26T16:46:53.339Z,53.50
2017-06-26T16:49:22.209Z,53.90
2017-06-26T16:51:56.244Z,54.40
2017-06-26T16:54:24.727Z,54.30
2017-06-26T16:56:57.572Z,54.10
2017-06-26T16:59:26.934Z,54.20
2017-06-26T17:01:55.428Z,55.40
2017-06-26T17:04:24.688Z,53.60
2017-06-26T17:06:53.237Z,53.60
2017-06-26T17:09:21.705Z,56.10
2017-06-26T17:11:50.155Z,55.20
2017-06-26T17:14:19.380Z,54.30
2017-06-26T17:16:48.001Z,56.10
2017-06-26T17:19:16.685Z,54.50
2017-06-26T17:21:45.145Z,56.70
2017-06-26T17:24:13.682Z,56.90
2017-06-26T17:26:42.148Z,57.30
2017-06-26T17:29:11.365Z,55.70
2017-06-26T17:31:40.013Z,55.60
2017-06-26T17:34:08.605Z,54.90
2017-06-26T17:36:37.544Z,56.80
2017-06-26T17:39:06.132Z,55.70
2017-06-26T17:41:48.015Z,54.90
2017-06-26T17:44:16.816Z,55.70
2017-06-26T17:46:45.566Z,57.10
2017-06-26T17:49:14.925Z,57.30
2017-06-26T17:51:43.475Z,57.30
2017-06-26T17:54:12.377Z,57.30
2017-06-26T17:56:40.929Z,57.70
2017-06-26T17:59:11.491Z,58.90
2017-06-26T18:01:39.964Z,58.80
2017-06-26T18:04:08.467Z,59.40
2017-06-26T18:06:37.000Z,59.80
2017-06-26T18:09:05.660Z,60.10
2017-06-26T18:11:34.269Z,59.90
2017-06-26T18:14:02.784Z,59.60
2017-06-26T18:16:31.321Z,59.60
2017-06-26T18:19:00.112Z,61.00
2017-06-26T18:21:28.940Z,61.00
2017-06-26T18:23:57.999Z,60.50
2017-06-26T18:26:26.515Z,59.90
2017-06-26T18:28:55.128Z,60.20
2017-06-26T18:31:23.616Z,59.10
2017-06-26T18:33:52.256Z,59.30
2017-06-26T18:36:20.936Z,59.70
2017-06-26T18:38:49.444Z,60.20
2017-06-26T18:41:17.940Z,61.60
2017-06-26T18:43:46.421Z,62.00
2017-06-26T18:46:14.915Z,62.10
2017-06-26T18:48:43.547Z,62.20
2017-06-26T18:51:12.048Z,62.80
2017-06-26T18:53:40.583Z,63.30
2017-06-26T18:56:09.359Z,64.30
2017-06-26T18:58:38.137Z,64.60
2017-06-26T19:01:06.598Z,64.90
2017-06-26T19:03:35.100Z,65.80
2017-06-26T19:06:03.704Z,66.90
2017-06-26T19:08:32.239Z,67.40
2017-06-26T19:11:00.784Z,67.00
2017-06-26T19:13:29.257Z,66.90
2017-06-26T19:15:59.109Z,67.20
2017-06-26T19:18:27.980Z,67.60
2017-06-26T19:20:56.648Z,67.30
2017-06-26T19:23:25.177Z,66.70
2017-06-26T19:25:54.647Z,65.50
2017-06-26T19:28:23.646Z,65.90
2017-06-26T19:30:52.549Z,67.20
2017-06-26T19:33:21.525Z,67.50
2017-06-26T19:35:50.045Z,67.90
2017-06-26T19:38:20.025Z,68.80
2017-06-26T19:40:48.545Z,68.90
2017-06-26T19:43:17.094Z,68.80
2017-06-26T19:45:45.869Z,68.50
2017-06-26T19:48:14.745Z,68.50
2017-06-26T19:50:43.494Z,68.70
2017-06-26T19:53:12.346Z,69.00
2017-06-26T19:55:40.812Z,69.70
2017-06-26T19:58:09.381Z,69.80
2017-06-26T20:00:38.075Z,70.50
2017-06-26T20:03:07.997Z,71.10
2017-06-26T20:05:36.589Z,71.00
2017-06-26T20:08:05.261Z,71.70
2017-06-26T20:10:35.063Z,72.80
2017-06-26T20:13:03.734Z,72.50
2017-06-26T20:15:32.509Z,72.60
2017-06-26T20:18:00.976Z,72.20
2017-06-26T20:20:29.557Z,72.40
2017-06-26T20:22:58.082Z,73.40
2017-06-26T20:25:26.664Z,72.80
2017-06-26T20:27:55.202Z,73.50
2017-06-26T20:30:24.163Z,74.10
2017-06-26T20:32:52.761Z,74.50
2017-06-26T20:35:21.237Z,75.00
2017-06-26T20:37:49.980Z,74.40
2017-06-26T20:40:18.524Z,74.30
2017-06-26T20:42:47.097Z,74.80
2017-06-26T20:45:15.675Z,74.90
2017-06-26T20:47:44.230Z,75.10
2017-06-26T20:50:12.940Z,75.10
2017-06-26T20:52:41.475Z,75.90
2017-06-26T20:55:10.314Z,76.80
2017-06-26T20:57:38.771Z,75.90
2017-06-26T21:00:07.362Z,76.00
2017-06-26T21:02:35.850Z,76.50
2017-06-26T21:05:04.332Z,76.40
2017-06-26T21:07:32.809Z,76.30
2017-06-26T21:10:01.337Z,76.70
2017-06-26T21:12:29.920Z,77.00
2017-06-26T21:14:58.459Z,77.60
2017-06-26T21:17:26.940Z,76.80
2017-06-26T21:19:55.396Z,77.50
2017-06-26T21:22:24.256Z,78.30
2017-06-26T21:24:52.755Z,77.80
2017-06-26T21:27:21.392Z,77.50
2017-06-26T21:29:49.913Z,77.80
2017-06-26T21:32:18.977Z,78.10
2017-06-26T21:34:47.563Z,78.40
2017-06-26T21:37:16.574Z,78.00
2017-06-26T21:39:45.140Z,77.50
2017-06-26T21:42:14.753Z,77.50
2017-06-26T21:44:43.277Z,77.40
2017-06-26T21:47:12.258Z,77.50
2017-06-26T21:49:40.847Z,78.30
2017-06-26T21:52:09.346Z,78.20
2017-06-26T21:54:38.038Z,78.50
2017-06-26T21:57:06.676Z,78.50
2017-06-26T21:59:35.462Z,78.70
2017-06-26T22:02:04.224Z,78.90
2017-06-26T22:04:32.968Z,79.30
2017-06-26T22:07:01.524Z,78.90
2017-06-26T22:09:30.487Z,78.90
2017-06-26T22:11:59.032Z,79.50
2017-06-26T22:14:27.800Z,79.80
2017-06-26T22:16:56.296Z,79.00
2017-06-26T22:19:24.803Z,79.50
2017-06-26T22:21:53.286Z,78.50
2017-06-26T22:24:21.742Z,79.10
2017-06-26T22:26:50.184Z,78.90
2017-06-26T22:42:30.633Z,78.40
2017-06-26T22:44:59.088Z,78.50
2017-06-26T22:47:27.660Z,79.00
2017-06-26T22:49:56.250Z,79.40
2017-06-26T22:52:24.769Z,79.00
2017-06-26T22:54:53.286Z,78.50
2017-06-26T22:57:21.993Z,79.00
2017-06-26T22:59:50.428Z,78.80
2017-06-26T23:02:19.655Z,79.40
2017-06-26T23:04:48.266Z,79.40
2017-06-26T23:07:17.092Z,79.40
2017-06-26T23:09:45.811Z,79.20
2017-06-26T23:12:14.248Z,79.10
2017-06-26T23:14:42.706Z,79.80
2017-06-26T23:17:11.183Z,79.80
2017-06-26T23:19:39.776Z,79.40
2017-06-26T23:22:08.469Z,79.80
2017-06-26T23:24:37.017Z,79.90
2017-06-26T23:27:05.480Z,80.30
2017-06-26T23:29:33.985Z,80.30
2017-06-26T23:32:02.487Z,81.10
2017-06-26T23:34:31.349Z,80.70
2017-06-26T23:36:59.901Z,80.80
2017-06-26T23:39:28.357Z,80.10
2017-06-26T23:41:56.840Z,80.40
2017-06-26T23:44:25.411Z,80.90
2017-06-26T23:46:53.892Z,81.40
2017-06-26T23:49:23.040Z,82.00
2017-06-26T23:51:53.285Z,81.60
2017-06-26T23:54:21.767Z,81.10
2017-06-26T23:56:50.576Z,81.50
2017-06-26T23:59:19.053Z,81.60
